MI94 weather

TC Helicopter Heliport
Traverse City, Michigan, United States

Public forecast

Using degrees Fahrenheit for public forecast. Weather courtesy of forecast.io.

METAR (pilot weather report)

Closest report is Cherry Capital Airport, 7.2 nm (13.3 km) E. Retrieved 2019/09/19 10:53 UTC (34 minutes ago):

KTVC 191053Z 00000KT 10SM BKN180 BKN250 19/12 A3009 RMK AO2 SLP187 T01890117

TAF (pilot weather forecast)

Closest forecast is Cherry Capital Airport, 7.2 nm (13.3 km) E. Retrieved 2019/09/19 06:33 UTC (5 hours ago):

TAF KTVC 190530Z 1906/2006 18008KT P6SM BKN180 WS020/20030KT FM190800 18009KT P6SM SCT180 WS015/21035KT FM191100 19008KT P6SM SCT200 WS015/23030KT FM191400 21006KT P6SM FEW200 FM192300 VRB03KT P6SM SCT200 FM200000 VRB03KT P6SM BKN180